createdAt,value
2022-08-23T00:00:13.041Z,18.43
2022-08-23T00:01:08.363Z,18.44
2022-08-23T00:02:13.706Z,18.47
2022-08-23T00:03:08.885Z,18.46
2022-08-23T00:04:08.146Z,18.47
2022-08-23T00:05:09.981Z,18.49
2022-08-23T00:06:08.757Z,18.50
2022-08-23T00:07:09.035Z,18.52
2022-08-23T00:08:09.332Z,18.50
2022-08-23T00:09:09.611Z,18.50
2022-08-23T00:10:09.960Z,18.50
2022-08-23T00:11:10.254Z,18.47
2022-08-23T00:12:10.563Z,18.49
2022-08-23T00:13:10.866Z,18.49
2022-08-23T00:14:11.206Z,18.50
2022-08-23T00:15:11.505Z,18.50
2022-08-23T00:16:11.822Z,18.47
2022-08-23T00:17:12.129Z,18.47
2022-08-23T00:18:13.418Z,18.40
2022-08-23T00:19:12.688Z,18.33
2022-08-23T00:20:12.981Z,18.25
2022-08-23T00:21:13.307Z,18.24
2022-08-23T00:22:13.685Z,18.25
2022-08-23T00:23:13.852Z,18.28
2022-08-23T00:24:14.155Z,18.29
2022-08-23T00:25:14.474Z,18.33
2022-08-23T00:26:14.774Z,18.36
2022-08-23T00:27:15.046Z,18.36
2022-08-23T00:28:15.375Z,18.37
2022-08-23T00:29:15.674Z,18.37
2022-08-23T00:30:15.971Z,18.34
2022-08-23T00:31:16.305Z,18.31
2022-08-23T00:32:16.599Z,18.29
2022-08-23T00:33:16.873Z,18.29
2022-08-23T00:34:17.182Z,18.31
2022-08-23T00:35:26.948Z,18.28
2022-08-23T00:36:18.796Z,18.28
2022-08-23T00:37:18.027Z,18.25
2022-08-23T00:38:32.983Z,18.27
2022-08-23T00:39:19.596Z,18.25
2022-08-23T00:40:18.944Z,18.25
2022-08-23T00:41:19.176Z,18.24
2022-08-23T00:42:19.476Z,18.24
2022-08-23T00:43:23.542Z,18.22
2022-08-23T00:44:20.001Z,18.21
2022-08-23T00:45:20.324Z,18.19
2022-08-23T00:46:20.622Z,18.22
2022-08-23T00:47:20.977Z,18.17
2022-08-23T00:48:21.169Z,18.10
2022-08-23T00:49:21.464Z,18.04
2022-08-23T00:50:24.168Z,18.03
2022-08-23T00:51:22.017Z,18.00
2022-08-23T00:52:22.349Z,18.03
2022-08-23T02:58:04.570Z,15.59
2022-08-23T02:59:04.782Z,15.61
2022-08-23T03:00:05.101Z,15.56
2022-08-23T03:01:05.408Z,15.57
2022-08-23T03:02:05.734Z,15.57
2022-08-23T03:03:05.994Z,15.56
2022-08-23T03:04:06.310Z,15.51
2022-08-23T03:05:06.648Z,15.45
2022-08-23T03:06:25.447Z,15.48
2022-08-23T03:07:08.257Z,15.67
2022-08-23T03:08:07.492Z,15.81
2022-08-23T03:09:07.779Z,15.85
2022-08-23T03:10:08.105Z,15.88
2022-08-23T03:11:09.858Z,15.85
2022-08-23T03:12:08.693Z,15.84
2022-08-23T03:13:09.026Z,15.85
2022-08-23T03:14:09.324Z,15.79
2022-08-23T03:15:09.618Z,15.76
2022-08-23T03:16:09.911Z,15.64
2022-08-23T03:17:10.240Z,15.56
2022-08-23T03:18:10.538Z,15.51
2022-08-23T03:19:10.838Z,15.45
2022-08-23T03:20:11.161Z,15.43
2022-08-23T03:21:11.479Z,15.39
2022-08-23T03:22:11.808Z,15.36
2022-08-23T03:23:12.112Z,15.31
2022-08-23T03:24:12.410Z,15.36
2022-08-23T03:25:12.710Z,15.33
2022-08-23T03:26:13.008Z,15.31
2022-08-23T03:27:13.311Z,15.30
2022-08-23T03:28:13.624Z,15.36
2022-08-23T03:29:13.919Z,15.36
2022-08-23T03:30:19.299Z,15.35
2022-08-23T03:31:15.558Z,15.36
2022-08-23T03:32:15.418Z,15.35
2022-08-23T03:33:15.093Z,15.33
2022-08-23T03:34:15.404Z,15.39
2022-08-23T03:35:15.730Z,15.48
2022-08-23T03:36:16.034Z,15.61
2022-08-23T03:37:16.328Z,15.74
2022-08-23T03:38:16.664Z,15.88
2022-08-23T03:39:16.950Z,15.97
2022-08-23T03:40:17.410Z,16.07
2022-08-23T03:41:17.527Z,16.07
2022-08-23T03:42:17.831Z,15.97
2022-08-23T03:43:18.149Z,15.89
2022-08-23T03:44:18.503Z,15.88
2022-08-23T03:45:18.696Z,15.84
2022-08-23T03:46:19.020Z,15.81
2022-08-23T03:47:19.308Z,15.76
2022-08-23T03:48:19.621Z,15.72
2022-08-23T03:49:19.926Z,15.61
2022-08-23T03:50:20.223Z,15.59
2022-08-23T03:51:20.502Z,15.49
2022-08-23T03:52:20.811Z,15.42
2022-08-23T03:53:21.119Z,15.36
2022-08-23T03:54:22.904Z,15.31
2022-08-23T03:55:21.757Z,15.23
2022-08-23T03:56:22.060Z,15.15
2022-08-23T03:57:22.354Z,15.15
2022-08-23T03:58:22.632Z,15.15
2022-08-23T03:59:22.951Z,15.11
2022-08-23T04:00:23.245Z,15.08
2022-08-23T04:01:28.539Z,15.03
2022-08-23T04:02:24.850Z,15.08
2022-08-23T04:03:24.084Z,15.11
2022-08-23T04:04:24.378Z,15.13
2022-08-23T04:05:24.662Z,15.26
2022-08-23T04:06:24.985Z,15.27
2022-08-23T04:07:25.299Z,15.19
2022-08-23T04:08:33.610Z,15.15
2022-08-23T04:09:26.884Z,15.13
2022-08-23T04:10:26.121Z,15.13
2022-08-23T04:11:26.438Z,15.13
2022-08-23T04:12:26.741Z,15.09
2022-08-23T04:13:27.050Z,15.03
2022-08-23T04:14:27.273Z,15.01
2022-08-23T04:15:27.612Z,14.95
2022-08-23T04:16:27.942Z,14.95
2022-08-23T04:17:31.044Z,14.98
2022-08-23T04:18:28.489Z,15.05
2022-08-23T04:19:28.816Z,15.08
2022-08-23T04:20:29.054Z,15.12
2022-08-23T04:21:29.351Z,15.28
2022-08-23T04:22:29.682Z,15.36
2022-08-23T04:23:30.010Z,15.36
2022-08-23T04:24:30.299Z,15.33
2022-08-23T04:25:33.571Z,15.43
2022-08-23T04:26:30.866Z,15.54
2022-08-23T04:27:31.209Z,15.64
2022-08-23T04:28:31.509Z,15.72
2022-08-23T04:29:34.402Z,15.76
2022-08-23T04:30:32.096Z,15.70
2022-08-23T04:31:34.534Z,15.68
2022-08-23T04:32:32.659Z,15.75
2022-08-23T04:33:32.982Z,15.82
2022-08-23T04:34:33.285Z,15.92
2022-08-23T04:35:33.579Z,15.94
2022-08-23T04:36:34.495Z,15.97
2022-08-23T04:37:35.058Z,15.99
2022-08-23T04:38:34.398Z,16.01
2022-08-23T04:39:34.679Z,16.06
2022-08-23T04:40:34.926Z,16.03
2022-08-23T04:41:35.230Z,15.94
2022-08-23T04:42:35.562Z,15.86
2022-08-23T04:43:35.871Z,15.82
2022-08-23T04:44:36.094Z,15.75
2022-08-23T04:45:36.372Z,15.66
2022-08-23T04:46:36.702Z,15.60
2022-08-23T04:47:36.999Z,15.54
2022-08-23T04:48:37.291Z,15.52
2022-08-23T04:49:37.581Z,15.51
2022-08-23T04:50:37.900Z,15.56
2022-08-23T04:51:38.239Z,15.68
2022-08-23T04:52:38.463Z,15.74
2022-08-23T04:53:38.763Z,15.74
2022-08-23T04:54:39.041Z,15.72
2022-08-23T04:55:39.344Z,15.72
2022-08-23T04:56:39.697Z,15.79
2022-08-23T04:57:39.880Z,15.88
2022-08-23T04:58:40.178Z,15.96
2022-08-23T04:59:40.471Z,15.99
2022-08-23T05:00:40.820Z,16.03
2022-08-23T05:01:41.083Z,16.06
2022-08-23T05:02:41.377Z,16.09
2022-08-23T05:03:41.691Z,16.12
2022-08-23T05:04:42.020Z,16.14
2022-08-23T05:05:42.359Z,16.18
2022-08-23T05:06:42.652Z,16.20
2022-08-23T05:07:43.229Z,16.20
2022-08-23T05:08:43.275Z,16.20
2022-08-23T05:09:43.580Z,16.20
2022-08-23T05:10:43.947Z,16.22
2022-08-23T05:11:44.125Z,16.20
2022-08-23T05:12:44.433Z,16.20
2022-08-23T05:13:44.748Z,16.20
2022-08-23T05:14:47.983Z,16.20
2022-08-23T05:15:45.406Z,16.20
2022-08-23T05:16:45.693Z,16.22
2022-08-23T05:17:45.972Z,16.23
2022-08-23T05:18:46.288Z,16.25
2022-08-23T05:19:47.293Z,16.23
2022-08-23T05:20:46.838Z,16.23
2022-08-23T05:21:47.166Z,16.25
2022-08-23T05:22:47.479Z,16.30
2022-08-23T05:23:51.090Z,16.30
2022-08-23T05:24:49.104Z,16.33
2022-08-23T05:25:48.345Z,16.33
2022-08-23T05:26:48.683Z,16.34
2022-08-23T05:27:48.977Z,16.31
2022-08-23T05:28:49.297Z,16.31
2022-08-23T05:29:49.606Z,16.30
2022-08-23T05:30:56.356Z,16.26
2022-08-23T05:31:51.235Z,16.26
2022-08-23T05:32:50.491Z,16.20
2022-08-23T05:33:50.835Z,16.15
2022-08-23T05:34:51.132Z,16.12
2022-08-23T05:35:51.527Z,16.14
2022-08-23T05:36:55.501Z,16.14
2022-08-23T05:37:52.004Z,16.18
2022-08-23T05:38:52.333Z,16.27
2022-08-23T05:39:52.588Z,16.41
2022-08-23T05:40:55.015Z,16.52
2022-08-23T05:41:53.036Z,16.59
2022-08-23T05:42:53.350Z,16.67
2022-08-23T05:43:53.705Z,16.80
2022-08-23T05:44:53.911Z,16.88
2022-08-23T05:45:54.205Z,16.96
2022-08-23T05:46:54.489Z,17.07
2022-08-23T05:47:55.737Z,17.11
2022-08-23T05:48:55.009Z,17.15
2022-08-23T05:49:55.319Z,17.20
2022-08-23T05:50:55.623Z,17.25
2022-08-23T05:51:55.956Z,17.30
2022-08-23T05:52:56.264Z,17.35
2022-08-23T05:53:56.580Z,17.38
2022-08-23T05:54:56.892Z,17.44
2022-08-23T05:55:57.196Z,17.51
2022-08-23T05:56:57.544Z,17.59
2022-08-23T05:57:57.883Z,17.70
2022-08-23T05:58:59.958Z,17.79
2022-08-23T05:59:58.385Z,17.91
2022-08-23T06:00:58.741Z,18.00
2022-08-23T06:01:58.951Z,18.07
2022-08-23T06:02:59.286Z,18.15
2022-08-23T06:03:59.584Z,18.25
2022-08-23T06:04:59.862Z,18.31
2022-08-23T06:06:00.174Z,18.39
2022-08-23T06:07:00.482Z,18.46
2022-08-23T06:08:00.978Z,18.52
2022-08-23T06:09:01.057Z,18.55
2022-08-23T06:10:01.365Z,18.59
2022-08-23T06:11:01.638Z,18.65
2022-08-23T06:12:01.943Z,18.70
2022-08-23T06:13:02.226Z,18.74
2022-08-23T06:14:02.613Z,18.80
2022-08-23T06:15:02.797Z,18.84
2022-08-23T06:16:14.624Z,18.83
2022-08-23T06:17:04.368Z,18.86
2022-08-23T06:18:03.618Z,18.87
2022-08-23T06:19:03.931Z,18.94
2022-08-23T06:20:04.313Z,18.97
2022-08-23T06:21:04.518Z,18.98
2022-08-23T06:22:04.852Z,18.97
2022-08-23T06:23:05.145Z,18.98
2022-08-23T06:24:05.450Z,19.02
2022-08-23T06:25:09.463Z,19.06
2022-08-23T06:26:05.951Z,19.08
2022-08-23T06:27:06.259Z,19.08
2022-08-23T06:28:06.583Z,19.08
2022-08-23T06:29:06.942Z,19.11
2022-08-23T06:30:07.185Z,19.10
2022-08-23T06:31:08.538Z,19.11
2022-08-23T06:32:07.867Z,19.08
2022-08-23T06:33:08.105Z,19.10
2022-08-23T06:34:08.515Z,19.10
2022-08-23T06:35:29.958Z,19.11
2022-08-23T06:36:10.050Z,19.10
2022-08-23T06:37:09.316Z,19.08
2022-08-23T06:38:09.606Z,19.06
2022-08-23T06:39:09.888Z,19.06
2022-08-23T06:40:10.250Z,19.10
2022-08-23T06:41:10.511Z,19.13
2022-08-23T06:42:34.836Z,19.13
2022-08-23T06:43:12.054Z,19.14
2022-08-23T06:44:11.289Z,19.17
2022-08-23T06:45:11.598Z,19.21
2022-08-23T06:46:11.949Z,19.23
2022-08-23T06:47:12.245Z,19.25
2022-08-23T06:48:15.893Z,19.24
2022-08-23T06:49:13.731Z,19.25
2022-08-23T06:50:12.961Z,19.25
2022-08-23T06:51:13.248Z,19.29
2022-08-23T06:52:13.568Z,19.31
2022-08-23T06:53:13.866Z,19.33
2022-08-23T06:54:14.175Z,19.35
2022-08-23T06:55:14.509Z,19.35
2022-08-23T06:56:14.813Z,19.35
2022-08-23T06:57:15.120Z,19.35
2022-08-23T06:58:15.428Z,19.33
2022-08-23T06:59:15.728Z,19.35
2022-08-23T07:00:21.511Z,19.35
2022-08-23T07:01:42.048Z,19.35
2022-08-23T07:02:17.698Z,19.33
2022-08-23T07:03:16.887Z,19.33
2022-08-23T07:04:17.206Z,19.35
2022-08-23T07:05:17.539Z,19.40
2022-08-23T07:06:17.847Z,19.40
2022-08-23T07:07:18.184Z,19.39
2022-08-23T07:08:18.490Z,19.43
2022-08-23T07:09:18.798Z,19.46
2022-08-23T07:10:19.098Z,19.48
2022-08-23T07:11:19.387Z,19.50
2022-08-23T07:12:19.710Z,19.54
2022-08-23T07:13:20.009Z,19.55
2022-08-23T07:14:20.303Z,19.60
2022-08-23T07:15:20.605Z,19.60
2022-08-23T07:16:21.023Z,19.60
2022-08-23T07:17:21.212Z,19.63
2022-08-23T07:18:21.546Z,19.63
2022-08-23T07:19:21.840Z,19.63
2022-08-23T07:20:23.144Z,19.66
2022-08-23T07:21:22.376Z,19.68
2022-08-23T07:22:22.661Z,19.68
2022-08-23T07:23:22.984Z,19.70
2022-08-23T07:24:23.302Z,19.73
2022-08-23T07:25:23.586Z,19.75
2022-08-23T07:26:23.935Z,19.76
2022-08-23T07:27:24.238Z,19.78
2022-08-23T07:28:24.572Z,19.78
2022-08-23T07:29:24.860Z,19.80
2022-08-23T07:30:25.190Z,19.79
2022-08-23T07:31:25.531Z,19.83
2022-08-23T07:32:25.909Z,19.84
2022-08-23T07:33:26.080Z,19.86
2022-08-23T07:34:26.389Z,19.86
2022-08-23T07:35:26.694Z,19.86
2022-08-23T07:36:27.986Z,19.88
2022-08-23T07:37:27.350Z,19.90
2022-08-23T07:38:30.697Z,19.91
2022-08-23T07:39:27.896Z,19.94
2022-08-23T07:40:28.253Z,19.95
2022-08-23T07:41:28.905Z,19.95
2022-08-23T07:42:28.776Z,19.97
2022-08-23T07:43:29.036Z,20.00
2022-08-23T07:44:29.258Z,19.98
2022-08-23T07:45:29.521Z,19.98
2022-08-23T07:46:29.881Z,19.98
2022-08-23T07:47:30.150Z,19.98
2022-08-23T07:48:52.458Z,19.97
2022-08-23T07:49:31.739Z,20.03
2022-08-23T07:50:31.088Z,20.05
2022-08-23T07:51:31.307Z,20.06
2022-08-23T07:52:31.662Z,20.10
2022-08-23T07:53:37.672Z,20.10
2022-08-23T07:54:33.140Z,20.13
2022-08-23T07:55:32.412Z,20.15
2022-08-23T07:56:32.705Z,20.18
2022-08-23T07:57:33.038Z,20.21
2022-08-23T07:58:33.353Z,20.25
2022-08-23T07:59:34.714Z,20.28
2022-08-23T08:00:33.931Z,20.33
2022-08-23T08:01:34.396Z,20.39
2022-08-23T08:02:34.527Z,20.46
2022-08-23T08:03:34.849Z,20.49
2022-08-23T08:04:35.174Z,20.53
2022-08-23T08:05:35.467Z,20.61
2022-08-23T08:06:35.735Z,20.61
2022-08-23T08:07:37.683Z,20.65
2022-08-23T08:08:36.318Z,20.64
2022-08-23T08:09:36.651Z,20.64
2022-08-23T08:10:36.840Z,20.58
2022-08-23T08:11:37.138Z,20.54
2022-08-23T08:12:37.447Z,20.50
2022-08-23T08:13:37.751Z,20.50
2022-08-23T08:14:38.059Z,20.51
2022-08-23T08:15:38.343Z,20.50
2022-08-23T08:16:38.630Z,20.49
2022-08-23T08:17:38.943Z,20.50
2022-08-23T08:18:39.234Z,20.58
2022-08-23T08:19:39.546Z,20.65
2022-08-23T08:20:39.854Z,20.66
2022-08-23T08:21:42.276Z,20.72
2022-08-23T08:22:43.321Z,20.80
2022-08-23T08:23:41.688Z,20.89
2022-08-23T08:24:40.919Z,20.93
2022-08-23T08:25:41.201Z,20.99
2022-08-23T08:26:41.509Z,21.05
2022-08-23T08:27:41.804Z,21.09
2022-08-23T08:28:42.099Z,21.13
2022-08-23T08:29:42.411Z,21.16
2022-08-23T08:30:42.715Z,21.17
2022-08-23T08:31:43.035Z,21.17
2022-08-23T08:32:47.207Z,21.16
2022-08-23T08:33:43.599Z,21.20
2022-08-23T08:34:43.956Z,21.21
2022-08-23T08:35:44.121Z,21.17
2022-08-23T08:36:44.415Z,21.24
2022-08-23T08:37:44.735Z,21.35
2022-08-23T08:38:48.063Z,21.44
2022-08-23T08:39:46.431Z,21.50
2022-08-23T08:40:45.575Z,21.57
2022-08-23T08:41:45.859Z,21.64
2022-08-23T08:42:46.203Z,21.72
2022-08-23T08:43:46.515Z,21.78
2022-08-23T08:44:46.810Z,21.78
2022-08-23T08:45:53.518Z,21.76
2022-08-23T08:46:48.404Z,21.81
2022-08-23T08:47:47.680Z,21.76
2022-08-23T08:48:47.988Z,21.63
2022-08-23T08:49:48.297Z,21.50
2022-08-23T08:50:48.584Z,21.53
2022-08-23T08:51:48.869Z,21.57
2022-08-23T08:52:49.213Z,21.59
2022-08-23T08:53:49.407Z,21.60
2022-08-23T08:54:49.709Z,21.67
2022-08-23T08:55:50.002Z,21.67
2022-08-23T08:56:50.252Z,21.64
2022-08-23T08:57:50.574Z,21.61
2022-08-23T08:58:50.878Z,21.74
2022-08-23T08:59:51.142Z,21.83
2022-08-23T09:00:55.586Z,21.88
2022-08-23T09:01:52.776Z,21.91
2022-08-23T09:02:52.141Z,22.01
2022-08-23T09:03:52.489Z,22.02
2022-08-23T09:04:53.936Z,21.97
2022-08-23T09:05:53.018Z,21.92
2022-08-23T09:06:53.321Z,21.97
2022-08-23T09:07:53.630Z,22.02
2022-08-23T09:08:53.959Z,22.12
2022-08-23T09:09:54.269Z,22.17
2022-08-23T09:10:54.581Z,22.25
2022-08-23T09:11:54.830Z,22.39
2022-08-23T09:12:55.119Z,22.50
2022-08-23T09:13:55.419Z,22.60
2022-08-23T09:14:55.775Z,22.54
2022-08-23T09:15:55.986Z,22.52
2022-08-23T09:16:56.177Z,22.59
2022-08-23T09:17:56.521Z,22.75
2022-08-23T09:18:56.731Z,22.90
2022-08-23T09:19:57.072Z,22.80
2022-08-23T09:20:57.261Z,22.78
2022-08-23T09:21:57.568Z,22.90
2022-08-23T09:22:57.871Z,22.97
2022-08-23T09:24:00.385Z,22.87
2022-08-23T09:24:58.489Z,22.77
2022-08-23T09:26:03.061Z,22.75
2022-08-23T09:26:59.067Z,22.90
2022-08-23T09:27:59.521Z,23.11
2022-08-23T09:28:59.713Z,23.24
2022-08-23T09:29:59.931Z,23.39
2022-08-23T09:31:00.293Z,23.46
2022-08-23T09:32:00.548Z,23.31
2022-08-23T09:33:01.275Z,23.24
2022-08-23T09:34:01.146Z,23.19
2022-08-23T09:35:01.494Z,23.15
2022-08-23T09:36:01.698Z,23.24
2022-08-23T09:37:01.995Z,23.34
2022-08-23T09:38:02.664Z,23.49
2022-08-23T09:39:02.630Z,23.62
2022-08-23T09:40:02.954Z,23.61
2022-08-23T09:41:03.281Z,23.62
2022-08-23T09:42:03.595Z,23.70
2022-08-23T09:43:03.943Z,23.67
2022-08-23T09:44:04.122Z,23.70
2022-08-23T09:45:04.460Z,23.77
2022-08-23T09:46:04.853Z,23.90
2022-08-23T09:47:05.087Z,23.85
2022-08-23T09:48:05.387Z,23.90
2022-08-23T09:49:05.716Z,23.98
2022-08-23T09:50:06.017Z,24.16
2022-08-23T09:51:06.331Z,24.38
2022-08-23T09:52:06.661Z,24.50
2022-08-23T09:53:07.083Z,24.69
2022-08-23T09:54:07.223Z,24.90
2022-08-23T09:55:07.523Z,24.97
2022-08-23T09:56:07.829Z,24.91
2022-08-23T09:57:08.143Z,24.75
2022-08-23T09:58:08.461Z,24.50
2022-08-23T09:59:08.767Z,24.56
2022-08-23T10:00:09.100Z,24.76
2022-08-23T10:01:09.429Z,24.92
2022-08-23T10:02:09.800Z,25.10
2022-08-23T10:03:10.051Z,25.13
2022-08-23T10:04:10.436Z,25.20
2022-08-23T10:05:11.916Z,25.20
2022-08-23T10:06:10.973Z,24.83
2022-08-23T10:07:11.311Z,24.37
2022-08-23T10:08:11.670Z,24.32
2022-08-23T10:09:11.857Z,24.37
2022-08-23T10:10:12.181Z,24.39
2022-08-23T10:11:12.501Z,24.29
2022-08-23T10:12:13.711Z,24.52
2022-08-23T10:13:13.015Z,24.61
2022-08-23T10:14:13.188Z,24.76
2022-08-23T10:15:13.496Z,24.69
2022-08-23T10:16:13.849Z,24.42
2022-08-23T10:17:14.048Z,24.50
2022-08-23T10:18:14.377Z,24.57
2022-08-23T10:19:14.672Z,24.77
2022-08-23T10:20:14.975Z,24.97
2022-08-23T10:21:18.979Z,25.06
2022-08-23T10:22:16.509Z,25.13
2022-08-23T10:23:15.780Z,25.38
2022-08-23T10:24:16.074Z,25.52
2022-08-23T10:25:16.404Z,25.39
2022-08-23T10:26:16.726Z,25.43
2022-08-23T10:27:17.046Z,25.64
2022-08-23T10:28:17.393Z,25.80
2022-08-23T10:29:17.586Z,25.74
2022-08-23T10:30:17.884Z,25.64
2022-08-23T10:31:18.258Z,25.77
2022-08-23T10:32:18.482Z,25.75
2022-08-23T10:33:18.934Z,25.75
2022-08-23T10:34:19.114Z,25.90
2022-08-23T10:35:20.188Z,26.04
2022-08-23T10:36:19.670Z,25.98
2022-08-23T10:37:19.914Z,25.75
2022-08-23T10:38:20.239Z,25.46
2022-08-23T10:39:20.587Z,25.52
2022-08-23T10:40:20.971Z,25.57
2022-08-23T10:41:21.223Z,25.62
2022-08-23T10:42:21.524Z,25.64
2022-08-23T10:43:21.833Z,25.68
2022-08-23T10:44:22.135Z,25.82
2022-08-23T10:45:22.468Z,25.98
2022-08-23T10:46:22.829Z,26.11
2022-08-23T10:47:23.086Z,25.98
2022-08-23T10:48:23.465Z,25.59
2022-08-23T10:49:23.668Z,25.16
2022-08-23T10:50:23.966Z,24.95
2022-08-23T10:51:31.657Z,24.79
2022-08-23T10:52:25.577Z,25.00
2022-08-23T10:53:24.837Z,25.37
2022-08-23T10:54:26.466Z,25.75
2022-08-23T10:55:25.464Z,26.11
2022-08-23T10:56:25.767Z,26.27
2022-08-23T10:57:26.107Z,26.49
2022-08-23T10:58:26.294Z,26.69
2022-08-23T10:59:26.599Z,26.62
2022-08-23T11:00:26.887Z,26.40
2022-08-23T11:01:27.329Z,26.54
2022-08-23T11:02:27.648Z,26.49
2022-08-23T11:03:29.100Z,26.54
2022-08-23T11:04:28.072Z,26.40
2022-08-23T11:05:28.394Z,26.37
2022-08-23T11:06:28.713Z,26.44
2022-08-23T11:07:29.064Z,26.52
2022-08-23T11:08:29.229Z,26.72
2022-08-23T11:09:29.523Z,26.79
2022-08-23T11:10:29.831Z,26.52
2022-08-23T11:11:30.135Z,26.42
2022-08-23T11:12:30.471Z,26.61
2022-08-23T11:13:30.814Z,26.65
2022-08-23T11:14:31.131Z,27.04
2022-08-23T11:15:31.493Z,27.31
2022-08-23T11:16:31.703Z,27.06
2022-08-23T11:17:32.032Z,26.91
2022-08-23T11:18:33.344Z,26.84
2022-08-23T11:19:32.690Z,26.64
2022-08-23T11:20:33.000Z,26.79
2022-08-23T11:21:33.311Z,26.95
2022-08-23T11:22:33.612Z,27.35
2022-08-23T11:23:33.945Z,27.29
2022-08-23T11:24:34.257Z,27.47
2022-08-23T11:25:34.587Z,27.69
2022-08-23T11:26:34.925Z,27.76
2022-08-23T11:27:35.138Z,28.07
2022-08-23T11:28:35.337Z,28.11
2022-08-23T11:29:35.665Z,28.31
2022-08-23T11:30:36.021Z,28.62
2022-08-23T11:31:36.233Z,28.78
2022-08-23T11:32:36.531Z,29.04
2022-08-23T11:33:36.848Z,29.11
2022-08-23T11:34:37.203Z,29.07
2022-08-23T11:35:37.397Z,29.03
2022-08-23T11:36:38.682Z,29.04
2022-08-23T11:37:37.958Z,29.03
2022-08-23T11:38:38.264Z,29.15
2022-08-23T11:39:38.614Z,29.38
2022-08-23T11:40:38.808Z,29.43
2022-08-23T11:41:39.139Z,29.19
2022-08-23T11:42:39.476Z,29.35
2022-08-23T11:43:39.665Z,29.52
2022-08-23T11:44:40.003Z,29.65
2022-08-23T11:45:40.658Z,29.79
2022-08-23T11:46:40.636Z,30.03
2022-08-23T11:47:40.939Z,30.27
2022-08-23T11:48:43.819Z,30.50
2022-08-23T11:49:41.571Z,30.78
2022-08-23T11:50:41.777Z,30.96
2022-08-23T11:51:42.088Z,31.18
2022-08-23T11:52:42.407Z,31.11
2022-08-23T11:53:42.706Z,30.75
2022-08-23T11:54:43.065Z,30.50
2022-08-23T11:55:43.256Z,30.69
2022-08-23T11:56:46.288Z,30.93
2022-08-23T11:57:43.894Z,31.05
2022-08-23T11:58:44.217Z,30.71
2022-08-23T11:59:44.571Z,30.67
2022-08-23T12:00:44.751Z,30.57
2022-08-23T12:01:45.077Z,30.67
2022-08-23T12:02:45.484Z,30.81
2022-08-23T12:03:46.129Z,30.96
2022-08-23T12:04:45.918Z,31.06
2022-08-23T12:05:46.227Z,31.36
2022-08-23T12:06:51.175Z,31.62
2022-08-23T12:07:47.834Z,31.80
2022-08-23T12:08:47.099Z,32.03
2022-08-23T12:09:47.427Z,32.15
2022-08-23T12:10:47.630Z,32.35
2022-08-23T12:11:47.957Z,32.55
2022-08-23T12:12:48.277Z,32.52
2022-08-23T12:13:48.628Z,32.39
2022-08-23T12:14:48.834Z,31.70
2022-08-23T12:15:49.082Z,31.17
2022-08-23T12:16:50.076Z,31.08
2022-08-23T12:17:49.520Z,30.62
2022-08-23T12:18:49.806Z,30.33
2022-08-23T12:19:50.186Z,30.62
2022-08-23T12:20:50.358Z,30.76
2022-08-23T12:21:50.721Z,30.87
2022-08-23T12:22:50.912Z,30.98
2022-08-23T12:23:51.213Z,31.24
2022-08-23T12:24:52.673Z,31.35
2022-08-23T12:25:51.741Z,31.33
2022-08-23T12:26:52.103Z,31.31
2022-08-23T12:27:52.382Z,30.84
2022-08-23T12:28:52.690Z,30.27
2022-08-23T12:29:52.999Z,30.24
2022-08-23T12:30:53.475Z,29.55
2022-08-23T12:31:53.560Z,29.49
2022-08-23T12:32:53.882Z,29.86
2022-08-23T12:33:54.194Z,30.14
2022-08-23T12:34:54.491Z,30.18
2022-08-23T12:35:54.809Z,30.47
2022-08-23T12:36:55.008Z,30.21
2022-08-23T12:37:55.316Z,30.34
2022-08-23T12:38:55.621Z,30.31
2022-08-23T12:39:55.992Z,30.09
2022-08-23T12:40:56.820Z,29.71
2022-08-23T12:41:56.604Z,29.68
2022-08-23T12:42:56.806Z,29.63
2022-08-23T12:43:57.098Z,29.57
2022-08-23T12:44:57.393Z,29.33
2022-08-23T12:45:57.810Z,29.34
2022-08-23T12:46:57.932Z,28.97
2022-08-23T12:47:58.263Z,29.00
2022-08-23T12:48:58.565Z,29.13
2022-08-23T12:49:58.854Z,29.11
2022-08-23T12:50:59.128Z,29.07
2022-08-23T12:51:59.410Z,29.22
2022-08-23T12:52:59.996Z,29.25
2022-08-23T12:53:59.982Z,29.07
2022-08-23T12:55:00.219Z,29.19
2022-08-23T12:56:00.559Z,29.43
2022-08-23T12:57:00.749Z,29.68
2022-08-23T12:58:01.060Z,30.05
2022-08-23T12:59:01.374Z,30.50
2022-08-23T13:00:16.451Z,30.84
2022-08-23T13:01:03.085Z,30.69
2022-08-23T13:02:02.325Z,30.53
2022-08-23T13:03:02.853Z,30.46
2022-08-23T13:04:02.832Z,30.31
2022-08-23T13:05:03.131Z,30.11
2022-08-23T13:06:03.487Z,29.87
2022-08-23T13:07:03.683Z,29.74
2022-08-23T13:08:03.992Z,29.60
2022-08-23T13:09:04.350Z,29.43
2022-08-23T13:10:04.617Z,29.52
2022-08-23T13:11:08.174Z,29.60
2022-08-23T13:12:05.126Z,29.44
2022-08-23T13:13:05.435Z,29.74
2022-08-23T13:14:05.767Z,30.03
2022-08-23T13:15:06.077Z,30.36
2022-08-23T13:16:07.249Z,30.81
2022-08-23T13:17:06.741Z,31.04
2022-08-23T13:18:07.048Z,30.91
2022-08-23T13:19:07.355Z,30.76
2022-08-23T13:20:07.650Z,30.94
2022-08-23T13:21:07.952Z,31.11
2022-08-23T13:22:08.297Z,31.01
2022-08-23T13:23:08.595Z,31.26
2022-08-23T13:24:08.929Z,31.33
2022-08-23T13:26:10.541Z,30.86
2022-08-23T13:27:09.771Z,30.45
2022-08-23T13:28:10.063Z,29.96
2022-08-23T13:29:10.396Z,29.72
2022-08-23T13:30:10.698Z,29.28
2022-08-23T13:31:11.077Z,29.50
2022-08-23T13:32:11.318Z,29.75
2022-08-23T13:33:11.659Z,29.90
2022-08-23T13:34:12.010Z,30.23
2022-08-23T13:35:12.269Z,30.47
2022-08-23T13:36:13.374Z,30.81
2022-08-23T13:37:12.891Z,31.13
2022-08-23T13:38:16.890Z,31.15
2022-08-23T13:39:14.502Z,31.05
2022-08-23T13:40:13.793Z,30.94
2022-08-23T13:41:14.058Z,30.94
2022-08-23T13:42:14.258Z,31.05
2022-08-23T13:43:14.602Z,31.05
2022-08-23T13:44:19.083Z,31.21
2022-08-23T13:45:15.202Z,31.38
2022-08-23T13:46:15.435Z,31.43
2022-08-23T13:47:15.665Z,31.33
2022-08-23T13:48:15.959Z,31.48
2022-08-23T13:49:16.291Z,31.17
2022-08-23T13:50:16.591Z,31.15
2022-08-23T13:51:16.904Z,31.28
2022-08-23T13:52:50.555Z,31.17
2022-08-23T13:53:18.663Z,30.90
2022-08-23T13:54:17.739Z,30.93
2022-08-23T13:55:18.029Z,31.09
2022-08-23T13:56:18.369Z,31.11
2022-08-23T13:57:18.570Z,31.26
2022-08-23T13:58:18.868Z,31.17
2022-08-23T13:59:19.182Z,31.11
2022-08-23T14:00:19.895Z,31.36
2022-08-23T14:01:19.842Z,31.40
2022-08-23T14:02:20.104Z,31.48
2022-08-23T14:03:20.306Z,31.68
2022-08-23T14:04:20.615Z,31.85
2022-08-23T14:05:20.948Z,31.65
2022-08-23T14:06:21.162Z,31.76
2022-08-23T14:07:25.340Z,31.91
2022-08-23T14:08:21.708Z,31.92
2022-08-23T14:09:22.032Z,31.88
2022-08-23T14:10:22.329Z,31.70
2022-08-23T14:11:22.653Z,31.54
2022-08-23T14:12:22.851Z,31.70
2022-08-23T14:13:23.160Z,31.82
2022-08-23T14:14:24.373Z,31.99
2022-08-23T14:15:54.324Z,31.91
2022-08-23T14:16:33.295Z,31.98
2022-08-23T14:17:25.384Z,31.99
2022-08-23T14:18:24.695Z,32.14
2022-08-23T14:20:43.581Z,32.49
2022-08-23T14:21:26.503Z,32.48
2022-08-23T14:22:25.761Z,32.36
2022-08-23T14:23:26.065Z,32.10
2022-08-23T14:24:26.930Z,32.20
2022-08-23T14:25:26.638Z,31.79
2022-08-23T14:26:26.935Z,31.57
2022-08-23T14:27:31.137Z,31.87
2022-08-23T14:28:27.498Z,32.21
2022-08-23T14:29:27.779Z,32.49
2022-08-23T14:30:29.996Z,32.81
2022-08-23T14:31:28.323Z,33.03
2022-08-23T14:32:28.638Z,33.20
2022-08-23T14:33:28.915Z,33.52
2022-08-23T14:34:29.264Z,33.78
2022-08-23T14:35:29.468Z,34.01
2022-08-23T14:36:30.017Z,34.26
2022-08-23T14:38:31.430Z,35.17
2022-08-23T14:39:30.670Z,35.48
2022-08-23T14:40:31.111Z,35.48
2022-08-23T14:41:31.228Z,35.63
2022-08-23T14:42:31.556Z,35.63
2022-08-23T14:43:31.860Z,35.82
2022-08-23T14:44:35.897Z,35.69
2022-08-23T14:45:32.532Z,35.99
2022-08-23T14:46:32.756Z,36.24
2022-08-23T14:47:32.943Z,36.43
2022-08-23T14:48:33.232Z,36.70
2022-08-23T14:49:33.560Z,36.91
2022-08-23T14:50:33.869Z,36.98
2022-08-23T14:51:34.228Z,36.64
2022-08-23T14:52:34.442Z,36.82
2022-08-23T14:53:34.750Z,36.99
2022-08-23T14:54:35.053Z,37.29
2022-08-23T14:55:35.352Z,37.58
2022-08-23T14:56:35.686Z,37.32
2022-08-23T14:57:36.014Z,37.10
2022-08-23T14:58:36.313Z,37.29
2022-08-23T14:59:36.592Z,37.38
2022-08-23T15:00:36.892Z,37.36
2022-08-23T15:01:37.256Z,37.32
2022-08-23T15:02:37.522Z,37.12
2022-08-23T15:03:37.895Z,37.02